sensor_id;sensor_type;location;lat;lon;timestamp;P1;durP1;ratioP1;P2;durP2;ratioP2
68178;SDS011;54998;42.656;23.382;2023-03-21T00:01:32;8.20;;;4.80;;
68178;SDS011;54998;42.656;23.382;2023-03-21T00:03:57;7.65;;;4.40;;
68178;SDS011;54998;42.656;23.382;2023-03-21T00:06:23;6.63;;;5.15;;
68178;SDS011;54998;42.656;23.382;2023-03-21T00:08:48;7.85;;;4.63;;
68178;SDS011;54998;42.656;23.382;2023-03-21T00:11:13;11.30;;;5.85;;
68178;SDS011;54998;42.656;23.382;2023-03-21T00:13:39;7.85;;;4.75;;
68178;SDS011;54998;42.656;23.382;2023-03-21T00:16:08;8.27;;;5.07;;
68178;SDS011;54998;42.656;23.382;2023-03-21T00:18:39;8.98;;;5.55;;
68178;SDS011;54998;42.656;23.382;2023-03-21T00:21:06;11.27;;;5.82;;
68178;SDS011;54998;42.656;23.382;2023-03-21T00:23:33;9.23;;;5.63;;
68178;SDS011;54998;42.656;23.382;2023-03-21T00:25:59;11.13;;;6.50;;
68178;SDS011;54998;42.656;23.382;2023-03-21T00:28:25;14.30;;;7.38;;
68178;SDS011;54998;42.656;23.382;2023-03-21T00:30:56;15.30;;;7.82;;
68178;SDS011;54998;42.656;23.382;2023-03-21T00:33:22;17.67;;;9.02;;
68178;SDS011;54998;42.656;23.382;2023-03-21T00:35:49;13.82;;;7.38;;
68178;SDS011;54998;42.656;23.382;2023-03-21T00:38:16;15.48;;;7.85;;
68178;SDS011;54998;42.656;23.382;2023-03-21T00:40:42;13.80;;;7.68;;
68178;SDS011;54998;42.656;23.382;2023-03-21T00:43:08;14.88;;;6.97;;
68178;SDS011;54998;42.656;23.382;2023-03-21T00:45:33;20.70;;;8.13;;
68178;SDS011;54998;42.656;23.382;2023-03-21T00:47:59;18.02;;;8.63;;
68178;SDS011;54998;42.656;23.382;2023-03-21T00:50:24;16.90;;;10.27;;
68178;SDS011;54998;42.656;23.382;2023-03-21T00:52:50;21.85;;;10.02;;
68178;SDS011;54998;42.656;23.382;2023-03-21T00:55:16;22.35;;;11.48;;
68178;SDS011;54998;42.656;23.382;2023-03-21T00:57:43;25.13;;;10.95;;
68178;SDS011;54998;42.656;23.382;2023-03-21T01:00:09;25.83;;;11.63;;
68178;SDS011;54998;42.656;23.382;2023-03-21T01:02:37;24.80;;;13.65;;
68178;SDS011;54998;42.656;23.382;2023-03-21T01:05:06;30.90;;;14.85;;
68178;SDS011;54998;42.656;23.382;2023-03-21T01:07:33;25.17;;;13.30;;
68178;SDS011;54998;42.656;23.382;2023-03-21T01:09:58;26.23;;;14.55;;
68178;SDS011;54998;42.656;23.382;2023-03-21T01:12:24;27.98;;;12.85;;
68178;SDS011;54998;42.656;23.382;2023-03-21T01:14:49;24.05;;;15.05;;
68178;SDS011;54998;42.656;23.382;2023-03-21T01:17:15;23.60;;;12.82;;
68178;SDS011;54998;42.656;23.382;2023-03-21T01:19:40;26.48;;;14.20;;
68178;SDS011;54998;42.656;23.382;2023-03-21T01:22:05;25.33;;;13.20;;
68178;SDS011;54998;42.656;23.382;2023-03-21T01:24:32;25.92;;;13.98;;
68178;SDS011;54998;42.656;23.382;2023-03-21T01:26:58;25.25;;;12.60;;
68178;SDS011;54998;42.656;23.382;2023-03-21T01:29:23;27.67;;;14.35;;
68178;SDS011;54998;42.656;23.382;2023-03-21T01:31:48;26.77;;;14.10;;
68178;SDS011;54998;42.656;23.382;2023-03-21T01:34:14;28.80;;;13.95;;
68178;SDS011;54998;42.656;23.382;2023-03-21T01:36:39;24.05;;;13.95;;
68178;SDS011;54998;42.656;23.382;2023-03-21T01:39:05;24.60;;;13.85;;
68178;SDS011;54998;42.656;23.382;2023-03-21T01:41:38;24.50;;;13.85;;
68178;SDS011;54998;42.656;23.382;2023-03-21T01:44:09;23.98;;;12.73;;
68178;SDS011;54998;42.656;23.382;2023-03-21T01:46:49;24.52;;;12.30;;
68178;SDS011;54998;42.656;23.382;2023-03-21T01:49:21;26.75;;;13.50;;
68178;SDS011;54998;42.656;23.382;2023-03-21T01:51:52;24.77;;;14.18;;
68178;SDS011;54998;42.656;23.382;2023-03-21T01:54:23;21.63;;;12.13;;
68178;SDS011;54998;42.656;23.382;2023-03-21T01:56:53;22.20;;;13.27;;
68178;SDS011;54998;42.656;23.382;2023-03-21T01:59:28;22.73;;;13.20;;
68178;SDS011;54998;42.656;23.382;2023-03-21T02:02:01;22.10;;;10.95;;
68178;SDS011;54998;42.656;23.382;2023-03-21T02:04:32;20.23;;;11.48;;
68178;SDS011;54998;42.656;23.382;2023-03-21T02:07:01;23.50;;;13.07;;
68178;SDS011;54998;42.656;23.382;2023-03-21T02:09:32;22.67;;;11.52;;
68178;SDS011;54998;42.656;23.382;2023-03-21T02:12:00;22.48;;;12.68;;
68178;SDS011;54998;42.656;23.382;2023-03-21T02:14:26;24.17;;;12.07;;
68178;SDS011;54998;42.656;23.382;2023-03-21T02:16:58;20.80;;;11.98;;
68178;SDS011;54998;42.656;23.382;2023-03-21T02:19:34;20.70;;;12.52;;
68178;SDS011;54998;42.656;23.382;2023-03-21T02:27:31;19.30;;;9.88;;
68178;SDS011;54998;42.656;23.382;2023-03-21T02:38:26;20.27;;;11.40;;
68178;SDS011;54998;42.656;23.382;2023-03-21T02:41:07;14.80;;;9.15;;
68178;SDS011;54998;42.656;23.382;2023-03-21T02:46:27;18.75;;;11.02;;
68178;SDS011;54998;42.656;23.382;2023-03-21T02:51:24;21.10;;;10.70;;
68178;SDS011;54998;42.656;23.382;2023-03-21T02:53:54;24.13;;;12.30;;
68178;SDS011;54998;42.656;23.382;2023-03-21T02:56:25;23.50;;;12.32;;
68178;SDS011;54998;42.656;23.382;2023-03-21T02:58:51;25.33;;;13.10;;
68178;SDS011;54998;42.656;23.382;2023-03-21T03:01:17;23.25;;;12.65;;
68178;SDS011;54998;42.656;23.382;2023-03-21T03:03:43;25.55;;;13.05;;
68178;SDS011;54998;42.656;23.382;2023-03-21T03:06:13;22.77;;;12.52;;
68178;SDS011;54998;42.656;23.382;2023-03-21T03:16:54;23.10;;;12.23;;
68178;SDS011;54998;42.656;23.382;2023-03-21T03:19:26;17.23;;;11.68;;
68178;SDS011;54998;42.656;23.382;2023-03-21T03:22:12;12.90;;;6.82;;
68178;SDS011;54998;42.656;23.382;2023-03-21T03:24:44;12.48;;;7.80;;
68178;SDS011;54998;42.656;23.382;2023-03-21T03:27:35;13.10;;;7.97;;
68178;SDS011;54998;42.656;23.382;2023-03-21T03:30:04;14.32;;;7.22;;
68178;SDS011;54998;42.656;23.382;2023-03-21T03:35:00;15.93;;;8.15;;
68178;SDS011;54998;42.656;23.382;2023-03-21T03:37:28;22.77;;;10.55;;
68178;SDS011;54998;42.656;23.382;2023-03-21T03:40:07;18.65;;;10.75;;
68178;SDS011;54998;42.656;23.382;2023-03-21T03:42:42;16.48;;;8.98;;
68178;SDS011;54998;42.656;23.382;2023-03-21T03:45:13;18.58;;;10.20;;
68178;SDS011;54998;42.656;23.382;2023-03-21T03:50:11;23.90;;;11.48;;
68178;SDS011;54998;42.656;23.382;2023-03-21T03:52:43;19.58;;;10.55;;
68178;SDS011;54998;42.656;23.382;2023-03-21T03:55:14;23.17;;;11.80;;
68178;SDS011;54998;42.656;23.382;2023-03-21T03:57:42;19.42;;;10.10;;
68178;SDS011;54998;42.656;23.382;2023-03-21T04:00:09;23.00;;;10.63;;
68178;SDS011;54998;42.656;23.382;2023-03-21T04:02:37;21.00;;;11.85;;
68178;SDS011;54998;42.656;23.382;2023-03-21T04:05:02;20.67;;;10.68;;
68178;SDS011;54998;42.656;23.382;2023-03-21T04:07:29;20.48;;;10.35;;
68178;SDS011;54998;42.656;23.382;2023-03-21T04:09:55;17.67;;;10.23;;
68178;SDS011;54998;42.656;23.382;2023-03-21T04:12:21;17.90;;;11.10;;
68178;SDS011;54998;42.656;23.382;2023-03-21T04:14:47;18.38;;;10.55;;
68178;SDS011;54998;42.656;23.382;2023-03-21T04:17:13;19.95;;;10.52;;
68178;SDS011;54998;42.656;23.382;2023-03-21T04:19:39;19.85;;;11.88;;
68178;SDS011;54998;42.656;23.382;2023-03-21T04:22:04;21.88;;;11.05;;
68178;SDS011;54998;42.656;23.382;2023-03-21T04:24:30;28.75;;;12.43;;
68178;SDS011;54998;42.656;23.382;2023-03-21T04:26:58;25.88;;;11.05;;
68178;SDS011;54998;42.656;23.382;2023-03-21T04:29:26;22.67;;;11.48;;
68178;SDS011;54998;42.656;23.382;2023-03-21T04:31:53;20.25;;;9.32;;
68178;SDS011;54998;42.656;23.382;2023-03-21T04:34:19;32.70;;;11.32;;
68178;SDS011;54998;42.656;23.382;2023-03-21T04:36:48;23.95;;;11.43;;
68178;SDS011;54998;42.656;23.382;2023-03-21T04:39:15;26.98;;;12.43;;
68178;SDS011;54998;42.656;23.382;2023-03-21T04:41:41;26.20;;;10.80;;
68178;SDS011;54998;42.656;23.382;2023-03-21T04:44:08;21.17;;;11.30;;
68178;SDS011;54998;42.656;23.382;2023-03-21T04:49:01;19.67;;;10.10;;
68178;SDS011;54998;42.656;23.382;2023-03-21T04:51:27;19.08;;;10.15;;
68178;SDS011;54998;42.656;23.382;2023-03-21T04:53:52;21.05;;;10.70;;
68178;SDS011;54998;42.656;23.382;2023-03-21T04:56:22;28.90;;;11.98;;
68178;SDS011;54998;42.656;23.382;2023-03-21T04:59:02;18.45;;;11.27;;
68178;SDS011;54998;42.656;23.382;2023-03-21T05:01:36;29.60;;;12.95;;
68178;SDS011;54998;42.656;23.382;2023-03-21T05:04:02;31.23;;;12.02;;
68178;SDS011;54998;42.656;23.382;2023-03-21T05:06:28;23.70;;;11.18;;
68178;SDS011;54998;42.656;23.382;2023-03-21T05:08:56;20.73;;;10.38;;
68178;SDS011;54998;42.656;23.382;2023-03-21T05:11:24;35.63;;;13.23;;
68178;SDS011;54998;42.656;23.382;2023-03-21T05:13:51;21.90;;;10.95;;
68178;SDS011;54998;42.656;23.382;2023-03-21T05:16:16;31.98;;;13.32;;
68178;SDS011;54998;42.656;23.382;2023-03-21T05:18:42;33.97;;;14.48;;
68178;SDS011;54998;42.656;23.382;2023-03-21T05:21:07;43.90;;;13.48;;
68178;SDS011;54998;42.656;23.382;2023-03-21T05:26:05;17.95;;;9.05;;
68178;SDS011;54998;42.656;23.382;2023-03-21T05:28:32;14.80;;;8.73;;
68178;SDS011;54998;42.656;23.382;2023-03-21T05:31:01;26.92;;;9.85;;
68178;SDS011;54998;42.656;23.382;2023-03-21T05:33:27;26.60;;;10.48;;
68178;SDS011;54998;42.656;23.382;2023-03-21T05:35:52;29.65;;;11.30;;
68178;SDS011;54998;42.656;23.382;2023-03-21T05:38:18;20.67;;;8.82;;
68178;SDS011;54998;42.656;23.382;2023-03-21T05:40:46;21.60;;;10.10;;
68178;SDS011;54998;42.656;23.382;2023-03-21T05:43:13;26.15;;;9.27;;
68178;SDS011;54998;42.656;23.382;2023-03-21T05:45:38;32.83;;;13.95;;
68178;SDS011;54998;42.656;23.382;2023-03-21T05:48:04;36.13;;;11.18;;
68178;SDS011;54998;42.656;23.382;2023-03-21T05:50:30;25.50;;;9.63;;
68178;SDS011;54998;42.656;23.382;2023-03-21T05:52:56;24.70;;;9.77;;
68178;SDS011;54998;42.656;23.382;2023-03-21T05:55:32;22.52;;;9.75;;
68178;SDS011;54998;42.656;23.382;2023-03-21T05:57:57;22.33;;;8.90;;
68178;SDS011;54998;42.656;23.382;2023-03-21T06:00:23;26.02;;;11.27;;
68178;SDS011;54998;42.656;23.382;2023-03-21T06:02:48;23.35;;;10.85;;
68178;SDS011;54998;42.656;23.382;2023-03-21T06:05:14;31.27;;;12.43;;
68178;SDS011;54998;42.656;23.382;2023-03-21T06:07:40;23.33;;;10.23;;
68178;SDS011;54998;42.656;23.382;2023-03-21T06:10:05;24.88;;;10.13;;
68178;SDS011;54998;42.656;23.382;2023-03-21T06:12:31;23.30;;;9.93;;
68178;SDS011;54998;42.656;23.382;2023-03-21T06:14:56;24.35;;;10.18;;
68178;SDS011;54998;42.656;23.382;2023-03-21T06:17:22;22.63;;;10.35;;
68178;SDS011;54998;42.656;23.382;2023-03-21T06:19:48;17.88;;;9.98;;
68178;SDS011;54998;42.656;23.382;2023-03-21T06:22:13;23.25;;;10.25;;
68178;SDS011;54998;42.656;23.382;2023-03-21T06:24:39;17.05;;;9.02;;
68178;SDS011;54998;42.656;23.382;2023-03-21T06:27:04;20.50;;;7.78;;
68178;SDS011;54998;42.656;23.382;2023-03-21T06:29:30;19.33;;;8.48;;
68178;SDS011;54998;42.656;23.382;2023-03-21T06:31:56;25.70;;;8.65;;
68178;SDS011;54998;42.656;23.382;2023-03-21T06:34:21;17.05;;;9.18;;
68178;SDS011;54998;42.656;23.382;2023-03-21T06:36:46;17.52;;;7.85;;
68178;SDS011;54998;42.656;23.382;2023-03-21T06:39:12;25.88;;;9.80;;
68178;SDS011;54998;42.656;23.382;2023-03-21T06:41:45;26.65;;;11.20;;
68178;SDS011;54998;42.656;23.382;2023-03-21T06:44:10;18.17;;;9.40;;
68178;SDS011;54998;42.656;23.382;2023-03-21T06:46:36;20.20;;;9.52;;
68178;SDS011;54998;42.656;23.382;2023-03-21T06:49:02;18.55;;;8.63;;
68178;SDS011;54998;42.656;23.382;2023-03-21T06:51:28;22.60;;;9.18;;
68178;SDS011;54998;42.656;23.382;2023-03-21T06:53:54;18.98;;;9.10;;
68178;SDS011;54998;42.656;23.382;2023-03-21T06:56:20;17.63;;;10.20;;
68178;SDS011;54998;42.656;23.382;2023-03-21T06:58:45;16.38;;;9.18;;
68178;SDS011;54998;42.656;23.382;2023-03-21T07:01:11;21.92;;;9.13;;
68178;SDS011;54998;42.656;23.382;2023-03-21T07:03:38;20.80;;;9.32;;
68178;SDS011;54998;42.656;23.382;2023-03-21T07:08:36;24.75;;;10.10;;
68178;SDS011;54998;42.656;23.382;2023-03-21T07:13:32;25.13;;;10.63;;
68178;SDS011;54998;42.656;23.382;2023-03-21T07:15:58;23.35;;;11.05;;
68178;SDS011;54998;42.656;23.382;2023-03-21T07:18:27;26.33;;;12.52;;
68178;SDS011;54998;42.656;23.382;2023-03-21T07:21:16;22.13;;;12.10;;
68178;SDS011;54998;42.656;23.382;2023-03-21T07:23:41;25.92;;;12.60;;
68178;SDS011;54998;42.656;23.382;2023-03-21T07:26:07;26.65;;;12.75;;
68178;SDS011;54998;42.656;23.382;2023-03-21T07:28:33;27.98;;;14.45;;
68178;SDS011;54998;42.656;23.382;2023-03-21T07:31:00;32.20;;;14.43;;
68178;SDS011;54998;42.656;23.382;2023-03-21T07:33:28;33.38;;;15.82;;
68178;SDS011;54998;42.656;23.382;2023-03-21T07:35:54;34.70;;;15.05;;
68178;SDS011;54998;42.656;23.382;2023-03-21T07:38:22;27.38;;;14.98;;
68178;SDS011;54998;42.656;23.382;2023-03-21T07:40:47;36.85;;;15.88;;
68178;SDS011;54998;42.656;23.382;2023-03-21T07:43:13;31.65;;;15.60;;
68178;SDS011;54998;42.656;23.382;2023-03-21T07:45:39;36.22;;;15.82;;
68178;SDS011;54998;42.656;23.382;2023-03-21T07:48:06;27.83;;;15.52;;
68178;SDS011;54998;42.656;23.382;2023-03-21T07:50:32;32.25;;;16.80;;
68178;SDS011;54998;42.656;23.382;2023-03-21T07:52:58;26.20;;;15.23;;
68178;SDS011;54998;42.656;23.382;2023-03-21T07:55:23;33.45;;;16.30;;
68178;SDS011;54998;42.656;23.382;2023-03-21T07:57:49;30.42;;;14.82;;
68178;SDS011;54998;42.656;23.382;2023-03-21T08:00:16;29.98;;;15.68;;
68178;SDS011;54998;42.656;23.382;2023-03-21T08:02:47;31.27;;;15.57;;
68178;SDS011;54998;42.656;23.382;2023-03-21T08:05:14;34.75;;;15.45;;
68178;SDS011;54998;42.656;23.382;2023-03-21T08:07:40;28.73;;;15.60;;
68178;SDS011;54998;42.656;23.382;2023-03-21T08:10:05;35.13;;;16.55;;
68178;SDS011;54998;42.656;23.382;2023-03-21T08:12:31;29.38;;;16.40;;
68178;SDS011;54998;42.656;23.382;2023-03-21T08:14:57;23.20;;;14.45;;
68178;SDS011;54998;42.656;23.382;2023-03-21T08:17:22;28.15;;;14.98;;
68178;SDS011;54998;42.656;23.382;2023-03-21T08:19:47;31.58;;;17.83;;
68178;SDS011;54998;42.656;23.382;2023-03-21T08:22:13;32.33;;;16.67;;
68178;SDS011;54998;42.656;23.382;2023-03-21T08:24:38;31.20;;;16.55;;
68178;SDS011;54998;42.656;23.382;2023-03-21T08:27:04;31.80;;;16.83;;
68178;SDS011;54998;42.656;23.382;2023-03-21T08:29:29;29.35;;;17.35;;
68178;SDS011;54998;42.656;23.382;2023-03-21T08:31:55;35.75;;;18.10;;
68178;SDS011;54998;42.656;23.382;2023-03-21T08:36:47;30.67;;;17.08;;
68178;SDS011;54998;42.656;23.382;2023-03-21T08:39:12;31.15;;;17.58;;
68178;SDS011;54998;42.656;23.382;2023-03-21T08:41:38;32.92;;;18.00;;
68178;SDS011;54998;42.656;23.382;2023-03-21T08:44:04;37.08;;;17.83;;
68178;SDS011;54998;42.656;23.382;2023-03-21T08:46:30;34.60;;;18.35;;
68178;SDS011;54998;42.656;23.382;2023-03-21T08:48:56;30.83;;;17.90;;
68178;SDS011;54998;42.656;23.382;2023-03-21T08:51:22;34.00;;;18.13;;
68178;SDS011;54998;42.656;23.382;2023-03-21T08:53:47;33.05;;;17.30;;
68178;SDS011;54998;42.656;23.382;2023-03-21T08:56:15;34.00;;;18.25;;
68178;SDS011;54998;42.656;23.382;2023-03-21T08:58:40;38.35;;;19.33;;
68178;SDS011;54998;42.656;23.382;2023-03-21T09:01:06;33.33;;;17.73;;
68178;SDS011;54998;42.656;23.382;2023-03-21T09:03:35;34.72;;;17.75;;
68178;SDS011;54998;42.656;23.382;2023-03-21T09:06:00;28.05;;;16.55;;
68178;SDS011;54998;42.656;23.382;2023-03-21T09:08:27;32.28;;;17.83;;
68178;SDS011;54998;42.656;23.382;2023-03-21T09:10:52;30.58;;;17.95;;
68178;SDS011;54998;42.656;23.382;2023-03-21T09:13:19;31.83;;;17.20;;
68178;SDS011;54998;42.656;23.382;2023-03-21T09:15:45;30.80;;;17.25;;
68178;SDS011;54998;42.656;23.382;2023-03-21T09:18:10;39.00;;;17.33;;
68178;SDS011;54998;42.656;23.382;2023-03-21T09:20:46;30.27;;;15.43;;
68178;SDS011;54998;42.656;23.382;2023-03-21T09:23:12;33.15;;;15.65;;
68178;SDS011;54998;42.656;23.382;2023-03-21T09:28:08;32.47;;;15.10;;
68178;SDS011;54998;42.656;23.382;2023-03-21T09:30:34;33.85;;;17.13;;
68178;SDS011;54998;42.656;23.382;2023-03-21T09:33:01;33.75;;;17.80;;
68178;SDS011;54998;42.656;23.382;2023-03-21T09:35:30;34.40;;;17.73;;
68178;SDS011;54998;42.656;23.382;2023-03-21T09:37:56;34.95;;;16.17;;
68178;SDS011;54998;42.656;23.382;2023-03-21T09:43:44;31.75;;;15.30;;
68178;SDS011;54998;42.656;23.382;2023-03-21T09:46:30;27.83;;;15.60;;
68178;SDS011;54998;42.656;23.382;2023-03-21T09:49:18;28.90;;;17.00;;
68178;SDS011;54998;42.656;23.382;2023-03-21T09:51:57;29.33;;;15.57;;
68178;SDS011;54998;42.656;23.382;2023-03-21T09:54:29;31.60;;;15.23;;
68178;SDS011;54998;42.656;23.382;2023-03-21T09:56:58;25.15;;;15.93;;
68178;SDS011;54998;42.656;23.382;2023-03-21T09:59:35;27.85;;;15.40;;
68178;SDS011;54998;42.656;23.382;2023-03-21T10:05:10;24.95;;;15.77;;
68178;SDS011;54998;42.656;23.382;2023-03-21T10:07:40;26.90;;;16.10;;
68178;SDS011;54998;42.656;23.382;2023-03-21T10:10:15;26.75;;;15.82;;
68178;SDS011;54998;42.656;23.382;2023-03-21T10:12:44;23.92;;;15.25;;
68178;SDS011;54998;42.656;23.382;2023-03-21T10:15:14;29.02;;;15.23;;
68178;SDS011;54998;42.656;23.382;2023-03-21T10:17:42;26.70;;;15.73;;
68178;SDS011;54998;42.656;23.382;2023-03-21T10:22:43;26.45;;;15.73;;
68178;SDS011;54998;42.656;23.382;2023-03-21T10:25:15;27.77;;;16.38;;
68178;SDS011;54998;42.656;23.382;2023-03-21T10:27:43;25.33;;;15.68;;
68178;SDS011;54998;42.656;23.382;2023-03-21T10:30:15;25.73;;;16.90;;
68178;SDS011;54998;42.656;23.382;2023-03-21T10:32:51;28.08;;;16.50;;
68178;SDS011;54998;42.656;23.382;2023-03-21T10:35:16;26.27;;;16.52;;
68178;SDS011;54998;42.656;23.382;2023-03-21T10:37:43;23.88;;;16.27;;
68178;SDS011;54998;42.656;23.382;2023-03-21T10:40:14;30.10;;;15.82;;
68178;SDS011;54998;42.656;23.382;2023-03-21T10:42:41;27.65;;;16.77;;
68178;SDS011;54998;42.656;23.382;2023-03-21T10:45:12;27.88;;;15.05;;
68178;SDS011;54998;42.656;23.382;2023-03-21T10:47:42;24.80;;;14.27;;
68178;SDS011;54998;42.656;23.382;2023-03-21T10:50:12;19.52;;;11.65;;
68178;SDS011;54998;42.656;23.382;2023-03-21T10:52:42;22.67;;;12.77;;
68178;SDS011;54998;42.656;23.382;2023-03-21T10:55:19;18.58;;;11.90;;
68178;SDS011;54998;42.656;23.382;2023-03-21T10:57:54;17.15;;;10.85;;
68178;SDS011;54998;42.656;23.382;2023-03-21T11:00:28;18.15;;;9.77;;
68178;SDS011;54998;42.656;23.382;2023-03-21T11:03:03;17.50;;;10.30;;
68178;SDS011;54998;42.656;23.382;2023-03-21T11:05:37;15.65;;;9.52;;
68178;SDS011;54998;42.656;23.382;2023-03-21T11:08:14;14.95;;;9.25;;
68178;SDS011;54998;42.656;23.382;2023-03-21T11:13:24;17.15;;;9.30;;
68178;SDS011;54998;42.656;23.382;2023-03-21T11:15:53;12.90;;;8.48;;
68178;SDS011;54998;42.656;23.382;2023-03-21T11:18:22;14.93;;;8.63;;
68178;SDS011;54998;42.656;23.382;2023-03-21T11:21:01;17.85;;;9.45;;
68178;SDS011;54998;42.656;23.382;2023-03-21T11:23:29;12.85;;;7.85;;
68178;SDS011;54998;42.656;23.382;2023-03-21T11:25:58;11.32;;;7.63;;
68178;SDS011;54998;42.656;23.382;2023-03-21T11:28:26;14.80;;;7.70;;
68178;SDS011;54998;42.656;23.382;2023-03-21T11:31:00;19.05;;;8.95;;
68178;SDS011;54998;42.656;23.382;2023-03-21T11:33:38;18.05;;;8.32;;
68178;SDS011;54998;42.656;23.382;2023-03-21T11:38:42;12.50;;;6.97;;
68178;SDS011;54998;42.656;23.382;2023-03-21T11:41:20;12.57;;;6.47;;
68178;SDS011;54998;42.656;23.382;2023-03-21T11:43:53;9.55;;;6.32;;
68178;SDS011;54998;42.656;23.382;2023-03-21T11:46:24;12.25;;;6.82;;
68178;SDS011;54998;42.656;23.382;2023-03-21T11:48:50;10.13;;;6.90;;
68178;SDS011;54998;42.656;23.382;2023-03-21T12:06:14;11.23;;;5.57;;
68178;SDS011;54998;42.656;23.382;2023-03-21T12:16:59;8.95;;;5.47;;
68178;SDS011;54998;42.656;23.382;2023-03-21T13:23:07;7.65;;;4.63;;
68178;SDS011;54998;42.656;23.382;2023-03-21T13:25:35;10.20;;;5.07;;
68178;SDS011;54998;42.656;23.382;2023-03-21T13:28:15;9.77;;;4.50;;
68178;SDS011;54998;42.656;23.382;2023-03-21T13:33:46;9.52;;;4.55;;
68178;SDS011;54998;42.656;23.382;2023-03-21T13:36:24;6.82;;;4.38;;
68178;SDS011;54998;42.656;23.382;2023-03-21T13:38:53;7.75;;;4.43;;
68178;SDS011;54998;42.656;23.382;2023-03-21T13:41:36;9.15;;;4.78;;
68178;SDS011;54998;42.656;23.382;2023-03-21T13:44:05;10.20;;;4.18;;
68178;SDS011;54998;42.656;23.382;2023-03-21T13:46:44;6.53;;;4.50;;
68178;SDS011;54998;42.656;23.382;2023-03-21T13:49:25;9.25;;;4.78;;
68178;SDS011;54998;42.656;23.382;2023-03-21T13:51:55;6.65;;;4.30;;
68178;SDS011;54998;42.656;23.382;2023-03-21T13:57:03;8.07;;;4.45;;
68178;SDS011;54998;42.656;23.382;2023-03-21T13:59:43;8.60;;;4.45;;
68178;SDS011;54998;42.656;23.382;2023-03-21T14:04:38;9.63;;;4.78;;
68178;SDS011;54998;42.656;23.382;2023-03-21T14:07:10;7.93;;;4.57;;
68178;SDS011;54998;42.656;23.382;2023-03-21T14:10:00;10.05;;;4.68;;
68178;SDS011;54998;42.656;23.382;2023-03-21T14:12:33;8.00;;;4.05;;
68178;SDS011;54998;42.656;23.382;2023-03-21T14:17:33;6.43;;;4.43;;
68178;SDS011;54998;42.656;23.382;2023-03-21T14:20:10;8.90;;;4.68;;
68178;SDS011;54998;42.656;23.382;2023-03-21T14:22:39;8.00;;;4.57;;
68178;SDS011;54998;42.656;23.382;2023-03-21T14:25:13;10.27;;;4.60;;
68178;SDS011;54998;42.656;23.382;2023-03-21T14:27:41;10.10;;;4.55;;
68178;SDS011;54998;42.656;23.382;2023-03-21T14:30:23;6.97;;;4.65;;
68178;SDS011;54998;42.656;23.382;2023-03-21T14:33:12;8.80;;;4.68;;
68178;SDS011;54998;42.656;23.382;2023-03-21T14:35:39;8.02;;;4.30;;
68178;SDS011;54998;42.656;23.382;2023-03-21T14:38:07;8.85;;;4.93;;
68178;SDS011;54998;42.656;23.382;2023-03-21T14:40:33;6.70;;;4.68;;
68178;SDS011;54998;42.656;23.382;2023-03-21T14:43:05;7.53;;;5.05;;
68178;SDS011;54998;42.656;23.382;2023-03-21T14:45:36;9.88;;;4.68;;
68178;SDS011;54998;42.656;23.382;2023-03-21T14:48:07;7.95;;;4.40;;
68178;SDS011;54998;42.656;23.382;2023-03-21T14:50:42;7.60;;;4.20;;
68178;SDS011;54998;42.656;23.382;2023-03-21T14:53:21;8.23;;;4.30;;
68178;SDS011;54998;42.656;23.382;2023-03-21T14:58:23;8.68;;;5.25;;
68178;SDS011;54998;42.656;23.382;2023-03-21T15:00:50;8.05;;;4.50;;
68178;SDS011;54998;42.656;23.382;2023-03-21T15:05:44;11.15;;;4.53;;
68178;SDS011;54998;42.656;23.382;2023-03-21T15:10:36;12.57;;;4.93;;
68178;SDS011;54998;42.656;23.382;2023-03-21T15:13:12;9.55;;;5.15;;
68178;SDS011;54998;42.656;23.382;2023-03-21T15:15:46;12.27;;;5.65;;
68178;SDS011;54998;42.656;23.382;2023-03-21T15:18:14;7.65;;;4.90;;
68178;SDS011;54998;42.656;23.382;2023-03-21T15:20:43;10.10;;;5.78;;
68178;SDS011;54998;42.656;23.382;2023-03-21T15:23:13;9.02;;;4.90;;
68178;SDS011;54998;42.656;23.382;2023-03-21T15:25:46;11.30;;;4.80;;
68178;SDS011;54998;42.656;23.382;2023-03-21T15:28:20;9.02;;;5.00;;
68178;SDS011;54998;42.656;23.382;2023-03-21T15:30:49;9.57;;;5.70;;
68178;SDS011;54998;42.656;23.382;2023-03-21T15:33:16;10.98;;;5.75;;
68178;SDS011;54998;42.656;23.382;2023-03-21T15:38:22;13.05;;;5.38;;
68178;SDS011;54998;42.656;23.382;2023-03-21T15:40:48;8.73;;;5.53;;
68178;SDS011;54998;42.656;23.382;2023-03-21T15:43:17;14.68;;;7.20;;
68178;SDS011;54998;42.656;23.382;2023-03-21T15:45:50;8.77;;;5.40;;
68178;SDS011;54998;42.656;23.382;2023-03-21T15:48:21;9.48;;;5.18;;
68178;SDS011;54998;42.656;23.382;2023-03-21T15:51:03;13.95;;;5.68;;
68178;SDS011;54998;42.656;23.382;2023-03-21T15:53:34;10.13;;;4.82;;
68178;SDS011;54998;42.656;23.382;2023-03-21T15:56:06;8.75;;;4.80;;
68178;SDS011;54998;42.656;23.382;2023-03-21T15:58:41;8.52;;;4.50;;
68178;SDS011;54998;42.656;23.382;2023-03-21T16:01:16;8.27;;;4.43;;
68178;SDS011;54998;42.656;23.382;2023-03-21T16:03:45;9.43;;;5.60;;
68178;SDS011;54998;42.656;23.382;2023-03-21T16:06:16;9.05;;;4.75;;
68178;SDS011;54998;42.656;23.382;2023-03-21T16:13:50;10.25;;;5.60;;
68178;SDS011;54998;42.656;23.382;2023-03-21T16:16:25;9.38;;;6.15;;
68178;SDS011;54998;42.656;23.382;2023-03-21T16:18:52;16.13;;;6.63;;
68178;SDS011;54998;42.656;23.382;2023-03-21T16:21:21;11.40;;;6.30;;
68178;SDS011;54998;42.656;23.382;2023-03-21T16:23:48;15.35;;;7.70;;
68178;SDS011;54998;42.656;23.382;2023-03-21T16:26:14;14.65;;;7.75;;
68178;SDS011;54998;42.656;23.382;2023-03-21T16:28:43;19.25;;;8.15;;
68178;SDS011;54998;42.656;23.382;2023-03-21T16:31:13;12.82;;;8.52;;
68178;SDS011;54998;42.656;23.382;2023-03-21T16:33:40;13.20;;;8.57;;
68178;SDS011;54998;42.656;23.382;2023-03-21T16:36:10;12.90;;;7.28;;
68178;SDS011;54998;42.656;23.382;2023-03-21T16:38:41;16.45;;;8.70;;
68178;SDS011;54998;42.656;23.382;2023-03-21T16:41:10;14.88;;;8.40;;
68178;SDS011;54998;42.656;23.382;2023-03-21T16:43:36;12.82;;;8.15;;
68178;SDS011;54998;42.656;23.382;2023-03-21T16:46:25;14.73;;;8.35;;
68178;SDS011;54998;42.656;23.382;2023-03-21T16:48:55;14.70;;;8.30;;
68178;SDS011;54998;42.656;23.382;2023-03-21T16:51:23;12.45;;;7.20;;
68178;SDS011;54998;42.656;23.382;2023-03-21T16:53:54;16.60;;;9.48;;
68178;SDS011;54998;42.656;23.382;2023-03-21T16:56:21;12.43;;;6.80;;
68178;SDS011;54998;42.656;23.382;2023-03-21T16:58:55;14.60;;;8.52;;
68178;SDS011;54998;42.656;23.382;2023-03-21T17:24:24;13.15;;;7.97;;
68178;SDS011;54998;42.656;23.382;2023-03-21T17:26:50;13.55;;;8.40;;
68178;SDS011;54998;42.656;23.382;2023-03-21T17:29:16;11.85;;;7.75;;
68178;SDS011;54998;42.656;23.382;2023-03-21T17:31:41;14.68;;;8.27;;
68178;SDS011;54998;42.656;23.382;2023-03-21T17:34:11;15.10;;;8.65;;
68178;SDS011;54998;42.656;23.382;2023-03-21T17:36:37;14.45;;;8.13;;
68178;SDS011;54998;42.656;23.382;2023-03-21T17:39:08;13.98;;;8.68;;
68178;SDS011;54998;42.656;23.382;2023-03-21T17:41:39;11.05;;;7.22;;
68178;SDS011;54998;42.656;23.382;2023-03-21T17:44:07;13.98;;;8.88;;